Stormwatcher's Retreat Logo




                  Temp     Hi    Low   Out    Dew  Wind  Wind   Wind    Hi    Hi   Wind   Heat    THW   THSW                Rain  Solar   Solar Hi Solar   UV    UV    Hi     Heat    Cool    In     In    In     In     In   In Air          Wind  Wind    ISS   Arc.
  Date    Time     Out   Temp   Temp   Hum    Pt. Speed   Dir    Run Speed   Dir  Chill  Index  Index  Index   Bar    Rain  Rate   Rad.  Energy    Rad.  Index  Dose   UV     D-D     D-D    Temp   Hum    Dew   Heat    EMC Density     ET   Samp   Tx   Recept  Int.
------------------------------------------------------------------------------------------------------------------------------------------------------------------------------------------------------------------------------------------------------------------------
10/21/19 12:10a   56.3   56.3   56.2    89   53.1  10.0   SSW   1.67  15.0   SSW   52.7   56.4   52.8   50.8  30.230  0.00  0.00     0     0.00      0     0.0  0.00   0.0   0.060   0.000   72.2    51   53.1   71.5   9.41  .0744    0.000   211    5    100.0   10 
10/21/19 12:20a   56.2   56.3   56.2    89   53.0  12.0   SSW   2.00  19.0   SSW   51.4   56.3   51.5   49.6  30.236  0.00  0.00     0     0.00      0     0.0  0.00   0.0   0.061   0.000   72.3    51   53.2   71.6   9.40  .0744    0.000   210    5    100.0   10 
10/21/19 12:30a   56.1   56.2   56.1    89   52.9  10.0   SSW   1.67  15.0   SSW   52.4   56.2   52.5   50.4  30.235  0.00  0.00     0     0.00      0     0.0  0.00   0.0   0.062   0.000   72.3    51   53.2   71.6   9.40  .0744    0.000   211    5    100.0   10 
10/21/19 12:40a   56.2   56.2   56.1    89   53.0   9.0   SSW   1.50  15.0    SW   53.2   56.3   53.3   51.2  30.228  0.00  0.00     0     0.00      0     0.0  0.00   0.0   0.061   0.000   72.3    51   53.2   71.6   9.40  .0744    0.000   213    5    100.0   10 
10/21/19 12:50a   56.4   56.4   56.2    89   53.2   9.0   SSW   1.50  13.0   SSW   53.4   56.5   53.5   51.4  30.234  0.00  0.00     0     0.00      0     0.0  0.00   0.0   0.060   0.000   72.3    51   53.2   71.6   9.40  .0744    0.000   212    5    100.0   10 
10/21/19  1:00a   56.4   56.5   56.4    89   53.2   9.0   SSW   1.50  16.0   SSE   53.4   56.5   53.5   51.4  30.231  0.00  0.00     0     0.00      0     0.0  0.00   0.0   0.060   0.000   72.3    51   53.2   71.6   9.40  .0744    0.001   212    5    100.0   10 
10/21/19  1:10a   56.5   56.5   56.4    89   53.3  10.0   SSW   1.67  16.0   SSW   52.9   56.6   53.0   51.0  30.224  0.00  0.00     0     0.00      0     0.0  0.00   0.0   0.059   0.000   72.3    51   53.2   71.6   9.40  .0743    0.000   213    5    100.0   10 
10/21/19  1:20a   56.5   56.5   56.5    89   53.3  11.0   SSW   1.83  20.0   SSW   52.3   56.6   52.4   50.4  30.230  0.00  0.00     0     0.00      0     0.0  0.00   0.0   0.059   0.000   72.4    51   53.2   71.7   9.40  .0743    0.000   212    5    100.0   10 
10/21/19  1:30a   56.4   56.5   56.4    89   53.2   9.0   SSW   1.50  13.0     S   53.4   56.5   53.5   51.4  30.233  0.00  0.00     0     0.00      0     0.0  0.00   0.0   0.060   0.000   72.4    51   53.2   71.7   9.40  .0743    0.000   212    5    100.0   10 
10/21/19  1:40a   56.4   56.5   56.4    89   53.2  10.0   SSW   1.67  18.0   SSW   52.8   56.5   52.9   50.9  30.226  0.00  0.00     0     0.00      0     0.0  0.00   0.0   0.060   0.000   72.4    51   53.2   71.7   9.40  .0743    0.000   211    5    100.0   10 
10/21/19  1:50a   56.4   56.4   56.3    89   53.2  10.0   SSW   1.67  15.0   SSW   52.8   56.5   52.9   50.9  30.229  0.00  0.00     0     0.00      0     0.0  0.00   0.0   0.060   0.000   72.4    51   53.2   71.7   9.40  .0743    0.000   214    5    100.0   10 
10/21/19  2:00a   56.4   56.4   56.4    89   53.2  10.0   SSW   1.67  16.0    SW   52.8   56.5   52.9   50.9  30.235  0.00  0.00     0     0.00      0     0.0  0.00   0.0   0.060   0.000   72.3    51   53.2   71.6   9.40  .0744    0.001   210    5    100.0   10 
10/21/19  2:10a   56.3   56.4   56.3    89   53.1  11.0   SSW   1.83  16.0   SSW   52.1   56.4   52.2   50.2  30.237  0.00  0.00     0     0.00      0     0.0  0.00   0.0   0.060   0.000   72.3    51   53.2   71.6   9.40  .0744    0.000   212    5    100.0   10 
10/21/19  2:20a   56.2   56.3   56.2    89   53.0  11.0   SSW   1.83  17.0    SW   51.9   56.3   52.0   50.0  30.240  0.00  0.00     0     0.00      0     0.0  0.00   0.0   0.061   0.000   72.3    51   53.2   71.6   9.40  .0744    0.000   213    5    100.0   10 
10/21/19  2:30a   56.1   56.2   56.1    89   52.9  11.0   SSW   1.83  18.0   SSE   51.8   56.2   51.9   49.9  30.243  0.00  0.00     0     0.00      0     0.0  0.00   0.0   0.062   0.000   72.3    51   53.2   71.6   9.40  .0744    0.000   212    5    100.0   10 
10/21/19  2:40a   55.9   56.1   55.9    89   52.7  10.0   SSW   1.67  15.0   SSE   52.2   56.0   52.3   50.2  30.242  0.00  0.00     0     0.00      0     0.0  0.00   0.0   0.063   0.000   72.3    51   53.2   71.6   9.40  .0744    0.000   213    5    100.0   10 
10/21/19  2:50a   55.9   55.9   55.9    89   52.7  10.0   SSW   1.67  14.0   SSW   52.2   56.0   52.3   50.2  30.243  0.00  0.00     0     0.00      0     0.0  0.00   0.0   0.063   0.000   72.3    51   53.2   71.6   9.40  .0744    0.000   213    5    100.0   10 
10/21/19  3:00a   56.0   56.0   55.9    90   53.1   9.0   SSW   1.50  16.0   SSW   53.0   56.1   53.1   51.0  30.244  0.00  0.00     0     0.00      0     0.0  0.00   0.0   0.063   0.000   72.3    51   53.2   71.6   9.40  .0744    0.001   213    5    100.0   10 
10/21/19  3:10a   56.1   56.2   56.0    90   53.2  10.0   SSW   1.67  14.0     S   52.4   56.2   52.5   50.5  30.248  0.00  0.00     0     0.00      0     0.0  0.00   0.0   0.062   0.000   72.3    51   53.2   71.6   9.40  .0744    0.000   212    5    100.0   10 
10/21/19  3:20a   56.1   56.2   56.1    90   53.2  10.0   SSW   1.67  17.0   SSE   52.4   56.2   52.5   50.5  30.246  0.00  0.00     0     0.00      0     0.0  0.00   0.0   0.062   0.000   72.3    51   53.2   71.6   9.40  .0744    0.000   213    5    100.0   10 
10/21/19  3:30a   56.2   56.2   56.1    90   53.3  10.0   SSW   1.67  15.0   SSW   52.5   56.3   52.6   50.6  30.247  0.00  0.00     0     0.00      0     0.0  0.00   0.0   0.061   0.000   72.3    51   53.2   71.6   9.40  .0744    0.000   212    5    100.0   10 
10/21/19  3:40a   56.2   56.2   56.2    90   53.3   9.0   SSW   1.50  13.0     S   53.2   56.3   53.3   51.2  30.249  0.00  0.00     0     0.00      0     0.0  0.00   0.0   0.061   0.000   72.3    51   53.2   71.6   9.40  .0744    0.000   212    5    100.0   10 
10/21/19  3:50a   56.2   56.2   56.1    90   53.3   8.0   SSW   1.33  13.0     S   53.9   56.3   54.0   51.8  30.252  0.00  0.00     0     0.00      0     0.0  0.00   0.0   0.061   0.000   72.3    51   53.2   71.6   9.40  .0744    0.000   212    5    100.0   10 
10/21/19  4:00a   56.1   56.2   56.1    90   53.2   9.0   SSW   1.50  15.0     S   53.1   56.2   53.2   51.1  30.251  0.00  0.00     0     0.00      0     0.0  0.00   0.0   0.062   0.000   72.2    51   53.1   71.5   9.41  .0744    0.001   212    5    100.0   10 
10/21/19  4:10a   56.0   56.1   56.0    90   53.1   9.0   SSW   1.50  13.0   SSW   53.0   56.1   53.1   51.0  30.253  0.00  0.00     0     0.00      0     0.0  0.00   0.0   0.063   0.000   72.2    51   53.1   71.5   9.41  .0744    0.000   211    5    100.0   10 
10/21/19  4:20a   56.0   56.1   56.0    90   53.1   9.0   SSW   1.50  14.0     S   53.0   56.1   53.1   51.0  30.260  0.00  0.00     0     0.00      0     0.0  0.00   0.0   0.063   0.000   72.2    51   53.1   71.5   9.41  .0744    0.000   214    5    100.0   10 
10/21/19  4:30a   56.0   56.0   55.9    90   53.1   9.0   SSW   1.50  14.0   SSW   53.0   56.1   53.1   51.0  30.258  0.00  0.00     0     0.00      0     0.0  0.00   0.0   0.063   0.000   72.2    51   53.1   71.5   9.41  .0744    0.000   212    5    100.0   10 
10/21/19  4:40a   56.1   56.1   56.0    90   53.2   8.0   SSW   1.33  12.0     S   53.8   56.2   53.9   51.7  30.254  0.00  0.00     0     0.00      0     0.0  0.00   0.0   0.062   0.000   72.2    51   53.1   71.5   9.41  .0744    0.000   214    5    100.0   10 
10/21/19  4:50a   56.1   56.1   56.0    90   53.2   8.0   SSW   1.33  13.0   SSW   53.8   56.2   53.9   51.7  30.252  0.00  0.00     0     0.00      0     0.0  0.00   0.0   0.062   0.000   72.3    51   53.2   71.6   9.40  .0744    0.000   212    5    100.0   10 
10/21/19  5:00a   56.0   56.1   56.0    90   53.1   8.0   SSW   1.33  14.0   SSE   53.7   56.1   53.8   51.6  30.259  0.00  0.00     0     0.00      0     0.0  0.00   0.0   0.063   0.000   72.3    51   53.2   71.6   9.40  .0744    0.001   212    5    100.0   10 
10/21/19  5:10a   55.9   56.0   55.9    90   53.0   9.0   SSW   1.50  14.0   SSW   52.9   56.0   53.0   50.9  30.260  0.00  0.00     0     0.00      0     0.0  0.00   0.0   0.063   0.000   72.3    51   53.2   71.6   9.40  .0744    0.000   213    5    100.0   10 
10/21/19  5:20a   56.0   56.0   55.9    90   53.1   8.0   SSW   1.33  14.0     S   53.7   56.1   53.8   51.6  30.265  0.00  0.00     0     0.00      0     0.0  0.00   0.0   0.063   0.000   72.3    51   53.2   71.6   9.40  .0744    0.000   211    5    100.0   10 
10/21/19  5:30a   56.0   56.0   56.0    90   53.1   8.0   SSW   1.33  14.0   SSE   53.7   56.1   53.8   51.6  30.267  0.00  0.00     0     0.00      0     0.0  0.00   0.0   0.063   0.000   72.3    51   53.2   71.6   9.40  .0744    0.000   212    5    100.0   10 
10/21/19  5:40a   56.0   56.0   56.0    90   53.1   8.0   SSW   1.33  13.0   SSW   53.7   56.1   53.8   51.6  30.270  0.00  0.00     0     0.00      0     0.0  0.00   0.0   0.063   0.000   72.3    51   53.2   71.6   9.40  .0745    0.000   213    5    100.0   10 
10/21/19  5:50a   56.0   56.1   56.0    90   53.1   8.0   SSW   1.33  14.0   SSE   53.7   56.1   53.8   51.6  30.272  0.00  0.00     0     0.00      0     0.0  0.00   0.0   0.063   0.000   72.3    51   53.2   71.6   9.40  .0745    0.000   211    5    100.0   10 
10/21/19  6:00a   56.3   56.3   56.0    90   53.4   7.0   SSW   1.17  11.0   SSW   54.8   56.4   54.9   52.6  30.272  0.00  0.00     0     0.00      0     0.0  0.00   0.0   0.060   0.000   72.3    51   53.2   71.6   9.40  .0745    0.001   212    5    100.0   10 
10/21/19  6:10a   56.4   56.4   56.3    90   53.5   8.0   SSW   1.33  12.0   SSW   54.2   56.5   54.3   52.1  30.273  0.00  0.00     0     0.00      0     0.0  0.00   0.0   0.060   0.000   72.3    51   53.2   71.6   9.40  .0745    0.000   212    5    100.0   10 
10/21/19  6:20a   56.4   56.4   56.4    90   53.5   7.0   SSW   1.17  12.0   SSW   54.9   56.5   55.0   52.7  30.274  0.00  0.00     0     0.00      0     0.0  0.00   0.0   0.060   0.000   72.3    51   53.2   71.6   9.40  .0745    0.000   213    5    100.0   10 
10/21/19  6:30a   56.5   56.5   56.4    90   53.6   9.0   SSW   1.50  16.0   SSW   53.6   56.6   53.7   51.6  30.275  0.00  0.00     0     0.00      0     0.0  0.00   0.0   0.059   0.000   72.3    51   53.2   71.6   9.40  .0745    0.000   213    5    100.0   10 
10/21/19  6:40a   56.4   56.5   56.4    90   53.5   9.0   SSW   1.50  15.0    SW   53.4   56.5   53.5   51.4  30.281  0.00  0.00     0     0.00      0     0.0  0.00   0.0   0.060   0.000   72.3    51   53.2   71.6   9.40  .0745    0.000   214    5    100.0   10 
10/21/19  6:50a   56.4   56.4   56.3    90   53.5   8.0   SSW   1.33  12.0   SSW   54.2   56.5   54.3   52.1  30.283  0.00  0.00     0     0.00      0     0.0  0.00   0.0   0.060   0.000   72.3    51   53.2   71.6   9.40  .0745    0.000   213    5    100.0   10 
10/21/19  7:00a   56.5   56.5   56.4    90   53.6   9.0   SSW   1.50  14.0     S   53.6   56.6   53.7   51.6  30.283  0.00  0.00     0     0.00      0     0.0  0.00   0.0   0.059   0.000   72.3    51   53.2   71.6   9.40  .0745    0.001   212    5    100.0   10 
10/21/19  7:10a   56.6   56.6   56.5    90   53.7   8.0   SSW   1.33  14.0   SSW   54.4   56.7   54.5   52.3  30.278  0.00  0.00     0     0.00      0     0.0  0.00   0.0   0.058   0.000   72.3    51   53.2   71.6   9.40  .0745    0.000   213    5    100.0   10 
10/21/19  7:20a   56.7   56.7   56.5    90   53.8   9.0   SSW   1.50  14.0   SSE   53.8   56.8   53.9   51.8  30.278  0.00  0.00     0     0.00      0     0.0  0.00   0.0   0.058   0.000   72.2    51   53.1   71.5   9.41  .0745    0.000   211    5    100.0   10 
10/21/19  7:30a   56.8   56.8   56.7    90   53.9   9.0   SSW   1.50  16.0     S   53.9   56.9   54.0   51.9  30.275  0.00  0.00     0     0.00      0     0.0  0.00   0.0   0.057   0.000   72.2    51   53.1   71.5   9.41  .0745    0.000   213    5    100.0   10 
10/21/19  7:40a   56.8   56.8   56.7    90   53.9   9.0   SSW   1.50  15.0    SW   53.9   56.9   54.0   52.0  30.280  0.00  0.00     4     0.06      5     0.0  0.00   0.0   0.057   0.000   72.2    51   53.1   71.5   9.41  .0745    0.000   213    5    100.0   10 
10/21/19  7:50a   56.7   56.8   56.7    90   53.8   9.0   SSW   1.50  16.0     S   53.8   56.8   53.9   51.9  30.282  0.00  0.00     6     0.09      7     0.0  0.00   0.0   0.058   0.000   72.2    51   53.1   71.5   9.41  .0745    0.000   212    5    100.0   10 
10/21/19  8:00a   56.8   56.8   56.6    90   53.9  10.0   SSW   1.67  17.0   SSW   53.3   56.9   53.4   51.6  30.281  0.00  0.00     9     0.13     12     0.0  0.00   0.0   0.057   0.000   72.1    51   53.0   71.3   9.41  .0745    0.001   210    5    100.0   10 
10/21/19  8:10a   56.8   56.9   56.8    89   53.6   8.0   SSW   1.33  13.0   SSW   54.7   56.9   54.8   53.1  30.285  0.00  0.00    24     0.34     35     0.0  0.00   0.0   0.057   0.000   72.1    51   53.0   71.3   9.41  .0745    0.000   211    5    100.0   10 
10/21/19  8:20a   56.6   56.8   56.6    89   53.4   9.0   SSW   1.50  15.0   SSE   53.7   56.7   53.8   52.4  30.284  0.00  0.00    37     0.53     44     0.0  0.00   0.0   0.058   0.000   72.1    51   53.0   71.3   9.41  .0745    0.000   213    5    100.0   10 
10/21/19  8:30a   57.0   57.0   56.6    89   53.8   7.0   SSW   1.17  15.0   SSW   55.6   57.1   55.7   54.8  30.289  0.00  0.00    59     0.85     74     0.0  0.00   0.0   0.056   0.000   72.1    51   53.0   71.3   9.41  .0745    0.000   211    5    100.0   10 
10/21/19  8:40a   57.1   57.3   57.0    89   53.9   8.0   SSW   1.33  14.0    SW   55.0   57.2   55.1   56.8  30.294  0.00  0.00    86     1.23    102     0.0  0.00   0.0   0.055   0.000   72.1    51   53.0   71.3   9.41  .0746    0.000   213    5    100.0   10 
10/21/19  8:50a   57.0   57.2   57.0    89   53.8   7.0   SSW   1.17  13.0    SW   55.6   57.1   55.7   58.0  30.300  0.00  0.00    95     1.36    105     0.0  0.00   0.0   0.056   0.000   72.1    51   53.0   71.3   9.41  .0746    0.000   212    5    100.0   10 
10/21/19  9:00a   57.3   57.3   57.0    89   54.1   8.0   SSW   1.33  12.0     S   55.3   57.4   55.4   58.2  30.304  0.00  0.00   110     1.58    155     0.0  0.00   0.0   0.053   0.000   72.1    51   53.0   71.3   9.41  .0746    0.002   211    5    100.0   10 
10/21/19  9:10a   57.1   57.3   57.1    88   53.6   8.0   SSW   1.33  13.0   SSW   55.0   57.1   55.0   57.6  30.308  0.00  0.00   106     1.52    123     0.0  0.00   0.0   0.055   0.000   72.1    51   53.0   71.3   9.41  .0746    0.000   214    5    100.0   10 
10/21/19  9:20a   56.8   57.1   56.8    88   53.3  11.0   SSW   1.83  16.0   SSE   52.7   56.8   52.7   54.7  30.309  0.00  0.00    99     1.42    111     0.0  0.00   0.0   0.057   0.000   72.1    52   53.5   71.4   9.61  .0746    0.000   213    5    100.0   10 
10/21/19  9:30a   57.2   57.2   56.8    88   53.7   9.0   SSW   1.50  15.0   SSW   54.3   57.2   54.3   57.6  30.309  0.00  0.00   136     1.95    155     0.0  0.00   0.0   0.054   0.000   72.1    52   53.5   71.4   9.61  .0746    0.000   211    5    100.0   10 
10/21/19  9:40a   57.1   57.2   57.1    88   53.6   9.0   SSW   1.50  15.0   SSW   54.2   57.1   54.2   59.0  30.319  0.00  0.00   189     2.71    250     0.0  0.00   0.0   0.055   0.000   72.2    52   53.6   71.5   9.61  .0746    0.000   214    5    100.0   10 
10/21/19  9:50a   56.9   57.1   56.9    88   53.4  11.0   SSW   1.83  15.0   SSW   52.8   56.9   52.8   56.7  30.324  0.00  0.00   171     2.45    202     0.0  0.00   0.0   0.056   0.000   72.2    52   53.6   71.5   9.61  .0746    0.000   213    5    100.0   10 
10/21/19 10:00a   56.8   56.9   56.8    88   53.3  11.0   SSW   1.83  17.0     S   52.7   56.8   52.7   55.8  30.328  0.00  0.00   148     2.12    160     0.0  0.00   0.0   0.057   0.000   72.2    52   53.6   71.5   9.61  .0746    0.004   209    5    100.0   10 
10/21/19 10:10a   56.8   56.8   56.8    88   53.3  10.0   SSW   1.67  14.0     S   53.3   56.8   53.3   56.3  30.329  0.00  0.00   146     2.09    163     0.0  0.00   0.0   0.057   0.000   72.2    52   53.6   71.5   9.61  .0746    0.000   213    5    100.0   10 
10/21/19 10:20a   57.2   57.2   56.8    88   53.7   9.0   SSW   1.50  14.0   SSE   54.3   57.2   54.3   58.7  30.331  0.00  0.00   194     2.78    213     0.0  0.00   0.0   0.054   0.000   72.2    52   53.6   71.5   9.61  .0746    0.000   212    5    100.0   10 
10/21/19 10:30a   57.1   57.2   57.1    88   53.6  10.0   SSW   1.67  17.0   SSW   53.6   57.1   53.6   59.2  30.330  0.00  0.00   253     3.63    316     0.0  0.00   0.0   0.055   0.000   72.2    52   53.6   71.5   9.61  .0746    0.000   212    5    100.0   10 
10/21/19 10:40a   57.4   57.4   57.1    88   53.9  11.0   SSW   1.83  16.0    SW   53.3   57.4   53.3   59.2  30.323  0.00  0.00   284     4.07    401     0.0  0.00   0.0   0.053   0.000   72.2    52   53.6   71.5   9.61  .0746    0.000   211    5    100.0   10 
10/21/19 10:50a   58.2   58.2   57.5    88   54.7  10.0   SSW   1.67  19.0     S   54.8   58.2   54.8   63.8  30.302  0.00  0.00   490     7.02    591     0.0  0.00   0.0   0.047   0.000   72.3    52   53.7   71.7   9.60  .0745    0.000   212    5    100.0   10 
10/21/19 11:00a   58.7   58.7   58.2    87   54.8   9.0   SSW   1.50  14.0   SSW   56.1   58.8   56.2   65.3  30.312  0.00  0.00   470     6.74    538     0.0  0.00   0.0   0.044   0.000   72.3    52   53.7   71.7   9.60  .0745    0.007   213    5    100.0   10 
10/21/19 11:10a   58.7   58.8   58.7    86   54.5  11.0   SSW   1.83  19.0   SSW   54.8   58.7   54.8   63.4  30.317  0.00  0.00   490     7.02    540     0.0  0.00   0.0   0.044   0.000   72.3    52   53.7   71.7   9.60  .0746    0.000   214    5    100.0   10 
10/21/19 11:20a   58.2   58.7   58.2    86   54.0  13.0   SSW   2.17  20.0     S   53.2   58.2   53.2   56.4  30.319  0.00  0.00   191     2.74    230     0.0  0.00   0.0   0.047   0.000   72.4    52   53.8   71.8   9.60  .0745    0.000   210    5    100.0   10 
10/21/19 11:30a   58.3   58.4   58.2    85   53.8  14.0   SSW   2.33  19.0     S   53.0   58.2   52.9   60.7  30.318  0.00  0.00   494     7.08    527     0.0  0.00   0.0   0.047   0.000   72.5    52   53.9   72.0   9.60  .0745    0.000   212    5    100.0   10 
10/21/19 11:40a   58.2   58.3   58.2    85   53.7  14.0   SSW   2.33  19.0   SSE   52.8   58.1   52.7   60.6  30.319  0.00  0.00   546     7.83    563     0.0  0.00   0.0   0.047   0.000   72.5    52   53.9   72.0   9.60  .0745    0.000   211    5    100.0   10 
10/21/19 11:50a   58.1   58.2   58.1    86   53.9  14.0   SSW   2.33  19.0    SW   52.7   58.0   52.6   60.6  30.321  0.00  0.00   538     7.71    571     0.0  0.00   0.0   0.048   0.000   72.6    52   54.0   72.1   9.60  .0745    0.000   211    5    100.0   10 
10/21/19 12:00p   58.2   58.3   58.1    86   54.0  13.0   SSW   2.17  21.0   SSE   53.2   58.2   53.2   61.4  30.318  0.00  0.00   525     7.53    552     0.0  0.00   0.0   0.047   0.000   72.6    52   54.0   72.1   9.60  .0745    0.010   213    5    100.0   10 
10/21/19 12:10p   58.3   58.5   58.2    85   53.8  13.0   SSW   2.17  19.0    SW   53.3   58.2   53.2   61.4  30.316  0.00  0.00   532     7.63    536     0.0  0.00   0.0   0.047   0.000   72.7    52   54.1   72.3   9.60  .0745    0.000   209    5    100.0   10 
10/21/19 12:20p   58.0   58.3   58.0    85   53.5  14.0   SSW   2.33  19.0   SSE   52.6   57.9   52.5   60.4  30.318  0.00  0.00   544     7.80    568     0.0  0.00   0.0   0.049   0.000   72.7    52   54.1   72.3   9.60  .0745    0.000   211    5    100.0   10 
10/21/19 12:30p   58.0   58.1   57.9    85   53.5  15.0   SSW   2.50  20.0     S   52.3   57.9   52.2   59.9  30.320  0.00  0.00   545     7.81    663     0.0  0.00   0.0   0.049   0.000   72.7    52   54.1   72.3   9.60  .0745    0.000   187    5     90.3   10 
10/21/19 12:40p   58.4   58.4   58.0    85   53.9  13.0   SSW   2.17  22.0     S   53.4   58.3   53.3   59.7  30.319  0.00  0.00   397     5.69    561     0.0  0.00   0.0   0.046   0.000   72.8    52   54.1   72.4   9.59  .0745    0.000   212    5    100.0   10 
10/21/19 12:50p   58.9   58.9   58.4    85   54.4  13.0   SSW   2.17  20.0   SSW   54.0   58.9   54.0   60.9  30.321  0.00  0.00   433     6.21    526     0.0  0.00   0.0   0.042   0.000   72.9    52   54.2   72.6   9.59  .0745    0.000   212    5    100.0   10 
10/21/19  1:00p   58.6   58.9   58.6    84   53.8  12.0   SSW   2.00  19.0   SSE   54.2   58.5   54.1   59.9  30.324  0.00  0.00   349     5.00    373     0.0  0.00   0.0   0.044   0.000   72.9    52   54.2   72.6   9.59  .0745    0.011   214    5    100.0   10 
10/21/19  1:10p   58.2   58.6   58.2    84   53.4  13.0   SSW   2.17  18.0   SSW   53.2   58.1   53.1   57.9  30.323  0.00  0.00   302     4.33    350     0.0  0.00   0.0   0.047   0.000   72.9    52   54.2   72.6   9.59  .0745    0.000   212    5    100.0   10 
10/21/19  1:20p   58.2   58.3   58.2    84   53.4  13.0   SSW   2.17  21.0     S   53.2   58.1   53.1   56.7  30.322  0.00  0.00   235     3.37    267     0.0  0.00   0.0   0.047   0.000   73.0    52   54.3   72.7   9.59  .0744    0.000   211    5    100.0   10 
10/21/19  1:30p   58.4   58.4   58.2    84   53.6  13.0   SSW   2.17  20.0   SSW   53.4   58.3   53.3   55.9  30.321  0.00  0.00   187     2.68    244     0.0  0.00   0.0   0.046   0.000   73.0    52   54.3   72.7   9.59  .0744    0.000   214    5    100.0   10 
10/21/19  1:40p   58.7   58.7   58.4    83   53.5  13.0   SSW   2.17  19.0    SW   53.8   58.6   53.7   57.6  30.321  0.00  0.00   253     3.63    262     0.0  0.00   0.0   0.044   0.000   73.0    52   54.3   72.7   9.59  .0744    0.000   209    5    100.0   10 
10/21/19  1:50p   58.7   58.7   58.7    83   53.5  11.0   SSW   1.83  17.0     S   54.8   58.6   54.7   58.9  30.320  0.00  0.00   255     3.66    267     0.0  0.00   0.0   0.044   0.000   73.1    52   54.4   72.8   9.59  .0744    0.000   211    5    100.0   10 
10/21/19  2:00p   59.3   59.3   58.7    82   53.8  11.0   SSW   1.83  20.0   SSE   55.5   59.2   55.4   59.4  30.318  0.00  0.00   244     3.50    258     0.0  0.00   0.0   0.040   0.000   73.1    52   54.4   72.8   9.59  .0744    0.006   214    5    100.0   10 
10/21/19  2:10p   58.9   59.3   58.9    82   53.4  12.0   SSW   2.00  22.0    SW   54.5   58.8   54.4   58.2  30.321  0.00  0.00   237     3.40    258     0.0  0.00   0.0   0.042   0.000   73.1    52   54.4   72.8   9.59  .0744    0.000   213    5    100.0   10 
10/21/19  2:20p   58.6   58.9   58.6    83   53.5  13.0   SSW   2.17  23.0    SW   53.7   58.5   53.6   57.5  30.322  0.00  0.00   248     3.56    257     0.0  0.00   0.0   0.044   0.000   73.1    52   54.4   72.8   9.59  .0744    0.000   213    5    100.0   10 
10/21/19  2:30p   58.9   58.9   58.6    83   53.7  11.0   SSW   1.83  20.0   SSW   55.1   58.8   55.0   58.5  30.325  0.00  0.00   215     3.08    258     0.0  0.00   0.0   0.042   0.000   73.1    52   54.4   72.8   9.59  .0744    0.000   213    5    100.0   10 
10/21/19  2:40p   58.7   58.9   58.7    83   53.5  11.0   SSW   1.83  19.0    SW   54.8   58.6   54.7   57.3  30.322  0.00  0.00   173     2.48    181     0.0  0.00   0.0   0.044   0.000   73.1    52   54.4   72.8   9.59  .0744    0.000   213    5    100.0   10 
10/21/19  2:50p   58.9   58.9   58.7    83   53.7  11.0   SSW   1.83  18.0     S   55.1   58.8   55.0   57.4  30.325  0.00  0.00   161     2.31    176     0.0  0.00   0.0   0.042   0.000   73.2    52   54.5   72.9   9.59  .0744    0.000   213    5    100.0   10 
10/21/19  3:00p   58.8   59.1   58.8    82   53.3  11.0   SSW   1.83  17.0     S   55.0   58.7   54.9   57.0  30.325  0.00  0.00   146     2.09    171     0.0  0.00   0.0   0.043   0.000   73.2    52   54.5   72.9   9.59  .0744    0.006   214    5    100.0   10 
10/21/19  3:10p   58.6   58.8   58.6    83   53.5  13.0   SSW   2.17  20.0    SW   53.7   58.5   53.6   54.9  30.327  0.00  0.00   117     1.68    125     0.0  0.00   0.0   0.044   0.000   73.2    52   54.5   72.9   9.59  .0744    0.000   212    5    100.0   10 
10/21/19  3:20p   58.5   58.7   58.5    83   53.4  12.0   SSW   2.00  24.0     S   54.1   58.4   54.0   55.1  30.333  0.00  0.00   105     1.51    113     0.0  0.00   0.0   0.045   0.000   73.2    52   54.5   72.9   9.59  .0744    0.000   209    5    100.0   10 
10/21/19  3:30p   58.7   58.7   58.5    83   53.5   9.0   SSW   1.50  14.0   SSW   56.1   58.6   56.0   57.4  30.331  0.00  0.00   110     1.58    121     0.0  0.00   0.0   0.044   0.000   73.1    52   54.4   72.8   9.59  .0744    0.000   212    5    100.0   10 
10/21/19  3:40p   58.8   58.8   58.7    83   53.6   7.0   SSW   1.17  14.0    SW   57.8   58.7   57.7   59.4  30.333  0.00  0.00   112     1.61    123     0.0  0.00   0.0   0.043   0.000   73.2    52   54.5   72.9   9.59  .0744    0.000   212    5    100.0   10 
10/21/19  3:50p   58.9   58.9   58.8    82   53.4   8.0   SSW   1.33  15.0   SSE   57.2   58.8   57.1   58.3  30.339  0.00  0.00    99     1.42    109     0.0  0.00   0.0   0.042   0.000   73.2    52   54.5   72.9   9.59  .0745    0.000   211    5    100.0   10 
10/21/19  4:00p   58.9   58.9   58.8    82   53.4   9.0   SSW   1.50  16.0   SSW   56.4   58.8   56.3   57.9  30.336  0.00  0.00   108     1.55    118     0.0  0.00   0.0   0.042   0.000   73.2    52   54.5   72.9   9.59  .0744    0.004   214    5    100.0   10 
10/21/19  4:10p   59.0   59.0   58.8    82   53.5   9.0   SSW   1.50  21.0    SW   56.5   58.9   56.4   57.8  30.337  0.00  0.00   100     1.43    114     0.0  0.00   0.0   0.042   0.000   73.2    52   54.5   72.9   9.59  .0744    0.000   212    5    100.0   10 
10/21/19  4:20p   59.4   59.5   59.0    81   53.6   9.0   SSW   1.50  16.0    SW   57.0   59.3   56.9   58.6  30.337  0.00  0.00   108     1.55    114     0.0  0.00   0.0   0.039   0.000   73.1    52   54.4   72.8   9.59  .0745    0.000   213    5    100.0   10 
10/21/19  4:30p   59.1   59.5   59.0    81   53.3   9.0   SSW   1.50  14.0   SSE   56.6   58.9   56.4   57.0  30.337  0.00  0.00    73     1.05     84     0.0  0.00   0.0   0.041   0.000   73.1    52   54.4   72.8   9.59  .0745    0.000   212    5    100.0   10 
10/21/19  4:40p   59.3   59.3   59.0    81   53.5   9.0   SSW   1.50  16.0   SSE   56.9   59.2   56.8   58.0  30.336  0.00  0.00    85     1.22     95     0.0  0.00   0.0   0.040   0.000   73.1    52   54.4   72.8   9.59  .0745    0.000   210    5    100.0   10 
10/21/19  4:50p   59.4   59.4   59.2    81   53.6   9.0   SSW   1.50  15.0   SSW   57.0   59.3   56.9   58.6  30.330  0.00  0.00    99     1.42    107     0.0  0.00   0.0   0.039   0.000   73.1    52   54.4   72.8   9.59  .0744    0.000   212    5    100.0   10 
10/21/19  5:00p   59.3   59.4   59.3    81   53.5  10.0   SSW   1.67  18.0     S   56.2   59.2   56.1   57.7  30.329  0.00  0.00    93     1.33     95     0.0  0.00   0.0   0.040   0.000   73.1    52   54.4   72.8   9.59  .0744    0.003   211    5    100.0   10 
10/21/19  5:10p   59.2   59.3   59.2    81   53.4  10.0   SSW   1.67  16.0   SSW   56.0   59.1   55.9   56.9  30.328  0.00  0.00    72     1.03     81     0.0  0.00   0.0   0.040   0.000   73.1    52   54.4   72.8   9.59  .0744    0.000   212    5    100.0   10 
10/21/19  5:20p   59.2   59.2   59.1    81   53.4  10.0   SSW   1.67  16.0     S   56.0   59.1   55.9   55.9  30.328  0.00  0.00    46     0.66     58     0.0  0.00   0.0   0.040   0.000   73.1    52   54.4   72.8   9.59  .0744    0.000   212    5    100.0   10 
10/21/19  5:30p   59.1   59.2   59.1    81   53.3   9.0   SSW   1.50  14.0   SSW   56.6   58.9   56.4   56.2  30.327  0.00  0.00    40     0.57     44     0.0  0.00   0.0   0.041   0.000   73.1    52   54.4   72.8   9.59  .0744    0.000   213    5    100.0   10 
10/21/19  5:40p   59.3   59.3   59.1    82   53.8  10.0   SSW   1.67  16.0   SSE   56.2   59.2   56.1   55.7  30.327  0.00  0.00    31     0.44     33     0.0  0.00   0.0   0.040   0.000   73.1    52   54.4   72.8   9.59  .0744    0.000   212    5    100.0   10 
10/21/19  5:50p   59.3   59.4   59.3    82   53.8   8.0   SSW   1.33  12.0   SSE   57.7   59.2   57.6   56.7  30.330  0.00  0.00    22     0.32     28     0.0  0.00   0.0   0.040   0.000   73.1    52   54.4   72.8   9.59  .0744    0.000   212    5    100.0   10 
10/21/19  6:00p   59.5   59.5   59.3    82   54.0   8.0   SSW   1.33  12.0    SW   57.9   59.4   57.8   56.6  30.328  0.00  0.00    13     0.19     16     0.0  0.00   0.0   0.038   0.000   73.1    52   54.4   72.8   9.59  .0744    0.002   212    5    100.0   10 
10/21/19  6:10p   59.4   59.5   59.3    82   53.9   7.0   SSW   1.17  12.0   WSW   58.5   59.3   58.4   56.8  30.324  0.00  0.00     8     0.11     11     0.0  0.00   0.0   0.039   0.000   73.1    52   54.4   72.8   9.59  .0744    0.000   213    5    100.0   10 
10/21/19  6:20p   59.5   59.6   59.4    82   54.0   9.0   SSW   1.50  17.0   SSW   57.1   59.4   57.0   54.9  30.323  0.00  0.00     2     0.03      5     0.0  0.00   0.0   0.038   0.000   73.0    52   54.3   72.7   9.59  .0744    0.000   212    5    100.0   10 
10/21/19  6:30p   59.6   59.6   59.5    81   53.8   9.0   SSW   1.50  16.0   SSW   57.2   59.5   57.1   55.0  30.325  0.00  0.00     0     0.00      0     0.0  0.00   0.0   0.038   0.000   73.0    52   54.3   72.7   9.59  .0745    0.000   211    5    100.0   10 
10/21/19  6:40p   59.6   59.6   59.6    81   53.8  10.0   SSW   1.67  15.0   SSE   56.5   59.5   56.4   54.4  30.325  0.00  0.00     0     0.00      0     0.0  0.00   0.0   0.038   0.000   73.0    52   54.3   72.7   9.59  .0745    0.000   212    5    100.0   10 
10/21/19  6:50p   59.8   59.8   59.6    82   54.3   9.0   SSW   1.50  17.0    SW   57.5   59.8   57.5   55.4  30.330  0.00  0.00     0     0.00      0     0.0  0.00   0.0   0.036   0.000   73.0    52   54.3   72.7   9.59  .0745    0.000   211    5    100.0   10 
10/21/19  7:00p   59.9   60.0   59.8    82   54.4  11.0   SSW   1.83  21.0    SW   56.2   59.9   56.2   54.2  30.331  0.00  0.00     0     0.00      0     0.0  0.00   0.0   0.035   0.000   73.0    52   54.3   72.7   9.59  .0745    0.001   213    5    100.0   10 
10/21/19  7:10p   60.0   60.0   59.9    82   54.5  10.0   SSW   1.67  17.0     S   57.0   60.0   57.0   55.0  30.336  0.00  0.00     0     0.00      0     0.0  0.00   0.0   0.035   0.000   73.0    52   54.3   72.7   9.59  .0745    0.000   212    5    100.0   10 
10/21/19  7:20p   60.1   60.1   60.0    82   54.6  11.0   SSW   1.83  19.0     S   56.4   60.1   56.4   54.4  30.336  0.00  0.00     0     0.00      0     0.0  0.00   0.0   0.034   0.000   73.0    52   54.3   72.7   9.59  .0745    0.000   211    5    100.0   10 
10/21/19  7:30p   59.8   60.0   59.8    82   54.3   9.0   SSW   1.50  15.0    SW   57.5   59.8   57.5   55.4  30.336  0.00  0.00     0     0.00      0     0.0  0.00   0.0   0.036   0.000   72.9    52   54.2   72.6   9.59  .0745    0.000   213    5    100.0   10 
10/21/19  7:40p   59.8   59.8   59.8    83   54.6   9.0   SSW   1.50  16.0   SSW   57.5   59.8   57.5   55.4  30.343  0.00  0.00     0     0.00      0     0.0  0.00   0.0   0.036   0.000   72.9    52   54.2   72.6   9.59  .0745    0.000   211    5    100.0   10 
10/21/19  7:50p   60.0   60.0   59.7    83   54.8   9.0   SSW   1.50  17.0   SSW   57.7   60.0   57.7   55.6  30.340  0.00  0.00     0     0.00      0     0.0  0.00   0.0   0.035   0.000   72.9    52   54.2   72.6   9.59  .0745    0.000   213    5    100.0   10 
10/21/19  8:00p   60.0   60.2   60.0    83   54.8   9.0   SSW   1.50  16.0   SSW   57.7   60.0   57.7   55.6  30.339  0.00  0.00     0     0.00      0     0.0  0.00   0.0   0.035   0.000   72.9    52   54.2   72.6   9.59  .0745    0.002   213    5    100.0   10 
10/21/19  8:10p   59.9   60.0   59.9    83   54.7   8.0   SSW   1.33  13.0     S   58.4   59.9   58.4   56.2  30.334  0.00  0.00     0     0.00      0     0.0  0.00   0.0   0.035   0.000   72.9    52   54.2   72.6   9.59  .0745    0.000   213    5    100.0   10 
10/21/19  8:20p   59.8   60.0   59.8    83   54.6   8.0   SSW   1.33  12.0     S   58.3   59.8   58.3   56.1  30.334  0.00  0.00     0     0.00      0     0.0  0.00   0.0   0.036   0.000   72.9    52   54.2   72.6   9.59  .0745    0.000   212    5    100.0   10 
10/21/19  8:30p   60.1   60.1   59.8    83   54.9   8.0   SSW   1.33  12.0   SSW   58.6   60.1   58.6   56.4  30.336  0.00  0.00     0     0.00      0     0.0  0.00   0.0   0.034   0.000   72.9    52   54.2   72.6   9.59  .0745    0.000   211    5    100.0   10 
10/21/19  8:40p   60.1   60.2   60.0    83   54.9   9.0   SSW   1.50  15.0    SW   57.8   60.1   57.8   55.7  30.339  0.00  0.00     0     0.00      0     0.0  0.00   0.0   0.034   0.000   72.8    52   54.1   72.4   9.59  .0745    0.000   211    5    100.0   10 
10/21/19  8:50p   60.1   60.3   60.1    83   54.9   7.0   SSW   1.17  13.0    SW   59.3   60.1   59.3   57.0  30.339  0.00  0.00     0     0.00      0     0.0  0.00   0.0   0.034   0.000   72.8    52   54.1   72.4   9.59  .0745    0.000   214    5    100.0   10 
10/21/19  9:00p   60.2   60.2   60.0    83   55.0   6.0   SSW   1.00  10.0   SSW   59.8   60.2   59.8   57.6  30.342  0.00  0.00     0     0.00      0     0.0  0.00   0.0   0.033   0.000   72.8    52   54.1   72.4   9.59  .0745    0.001   213    5    100.0   10 
10/21/19  9:10p   60.3   60.3   60.1    83   55.1   7.0   SSW   1.17  12.0   SSW   59.6   60.3   59.6   57.4  30.340  0.00  0.00     0     0.00      0     0.0  0.00   0.0   0.033   0.000   72.8    52   54.1   72.4   9.59  .0745    0.000   212    5    100.0   10 
10/21/19  9:20p   60.3   60.4   60.3    83   55.1   9.0   SSW   1.50  14.0    SW   58.1   60.3   58.1   56.1  30.337  0.00  0.00     0     0.00      0     0.0  0.00   0.0   0.033   0.000   72.8    52   54.1   72.4   9.59  .0745    0.000   213    5    100.0   10 
10/21/19  9:30p   60.5   60.6   60.3    83   55.3   9.0   SSW   1.50  14.0    SW   58.3   60.6   58.4   56.4  30.339  0.00  0.00     0     0.00      0     0.0  0.00   0.0   0.031   0.000   72.8    52   54.1   72.4   9.59  .0745    0.000   212    5    100.0   10 
10/21/19  9:40p   60.0   60.5   60.0    82   54.5   9.0   SSW   1.50  13.0     S   57.7   60.0   57.7   55.6  30.337  0.00  0.00     0     0.00      0     0.0  0.00   0.0   0.035   0.000   72.7    52   54.1   72.3   9.60  .0745    0.000   212    5    100.0   10 
10/21/19  9:50p   60.2   60.3   60.0    83   55.0   8.0   SSW   1.33  13.0   SSE   58.7   60.2   58.7   56.6  30.334  0.00  0.00     0     0.00      0     0.0  0.00   0.0   0.033   0.000   72.7    52   54.1   72.3   9.60  .0745    0.000   212    5    100.0   10 
10/21/19 10:00p   60.6   60.6   60.2    83   55.4   7.0   SSW   1.17  12.0     S   59.9   60.7   60.0   57.8  30.332  0.00  0.00     0     0.00      0     0.0  0.00   0.0   0.031   0.000   72.7    52   54.1   72.3   9.60  .0745    0.001   213    5    100.0   10 
10/21/19 10:10p   61.1   61.1   60.6    82   55.6   7.0   SSW   1.17  13.0   SSW   60.5   61.2   60.6   58.4  30.334  0.00  0.00     0     0.00      0     0.0  0.00   0.0   0.027   0.000   72.7    52   54.1   72.3   9.60  .0745    0.000   212    5    100.0   10 
10/21/19 10:20p   61.0   61.2   61.0    82   55.5   9.0   SSW   1.50  14.0   SSW   58.9   61.1   59.0   57.0  30.340  0.00  0.00     0     0.00      0     0.0  0.00   0.0   0.028   0.000   72.7    52   54.1   72.3   9.60  .0745    0.000   212    5    100.0   10 
10/21/19 10:30p   59.8   61.0   59.8    82   54.3   8.0    SW   1.33  14.0    SW   58.3   59.8   58.3   56.1  30.350  0.00  0.00     0     0.00      0     0.0  0.00   0.0   0.036   0.000   72.7    52   54.1   72.3   9.60  .0746    0.000   213    5    100.0   10 
10/21/19 10:40p   59.1   59.8   59.1    83   53.9   8.0   SSW   1.33  12.0   SSW   57.4   59.0   57.3   55.1  30.346  0.00  0.00     0     0.00      0     0.0  0.00   0.0   0.041   0.000   72.7    52   54.1   72.3   9.60  .0746    0.000   211    5    100.0   10 
10/21/19 10:50p   59.6   59.6   59.0    84   54.8   6.0   SSW   1.00  10.0   SSE   59.1   59.6   59.1   56.8  30.344  0.00  0.00     0     0.00      0     0.0  0.00   0.0   0.038   0.000   72.7    52   54.1   72.3   9.60  .0746    0.000   212    5    100.0   10 
10/21/19 11:00p   60.2   60.2   59.6    83   55.0   5.0   SSW   0.83   9.0   SSW   60.2   60.2   60.2   58.0  30.339  0.00  0.00     0     0.00      0     0.0  0.00   0.0   0.033   0.000   72.6    52   54.0   72.1   9.60  .0746    0.001   213    5    100.0   10 
10/21/19 11:10p   60.8   60.8   60.2    83   55.6   6.0   SSW   1.00  11.0   SSE   60.6   60.9   60.7   58.5  30.343  0.00  0.00     0     0.00      0     0.0  0.00   0.0   0.029   0.000   72.6    52   54.0   72.1   9.60  .0746    0.000   212    5    100.0   10 
10/21/19 11:20p   60.7   60.8   60.6    83   55.5   6.0   SSW   1.00  11.0     S   60.4   60.8   60.5   58.3  30.346  0.00  0.00     0     0.00      0     0.0  0.00   0.0   0.030   0.000   72.6    52   54.0   72.1   9.60  .0746    0.000   214    5    100.0   10 
10/21/19 11:30p   60.7   60.8   60.7    83   55.5   6.0   SSW   1.00  10.0   SSW   60.4   60.8   60.5   58.3  30.345  0.00  0.00     0     0.00      0     0.0  0.00   0.0   0.030   0.000   72.6    52   54.0   72.1   9.60  .0746    0.000   211    5    100.0   10 
10/21/19 11:40p   60.8   60.9   60.6    83   55.6   6.0   SSW   1.00  11.0   SSW   60.6   60.9   60.7   58.5  30.346  0.00  0.00     0     0.00      0     0.0  0.00   0.0   0.029   0.000   72.5    52   53.9   72.0   9.60  .0746    0.000   213    5    100.0   10 
10/21/19 11:50p   60.4   60.7   60.3    83   55.2   5.0   SSW   0.83   9.0   SSW   60.4   60.5   60.5   58.3  30.346  0.00  0.00     0     0.00      0     0.0  0.00   0.0   0.032   0.000   72.5    52   53.9   72.0   9.60  .0746    0.000   213    5    100.0   10 
10/22/19 12:00a   60.2   60.7   60.2    83   55.0   7.0   SSW   1.17  15.0   SSW   59.4   60.2   59.4   57.2  30.347  0.00  0.00     0     0.00      0     0.0  0.00   0.0   0.033   0.000   72.5    52   53.9   72.0   9.60  .0746    0.001   213    5    100.0   10 
10/22/19 12:10a   59.5   60.1   59.5    83   54.3   7.0   SSW   1.17  12.0    SW   58.6   59.5   58.6   56.3  30.346  0.00  0.00     0     0.00      0     0.0  0.00   0.0   0.038   0.000   72.5    52   53.9   72.0   9.60  .0746    0.000   211    5    100.0   10 
10/22/19 12:20a   60.2   60.3   59.5    84   55.3   8.0   SSW   1.33  14.0   SSW   58.7   60.3   58.8   56.7  30.346  0.00  0.00     0     0.00      0     0.0  0.00   0.0   0.033   0.000   72.5    52   53.9   72.0   9.60  .0746    0.000   213    5    100.0   10 
10/22/19 12:30a   60.3   60.6   60.2    83   55.1   8.0   SSW   1.33  14.0   SSW   58.9   60.3   58.9   56.8  30.355  0.00  0.00     0     0.00      0     0.0  0.00   0.0   0.033   0.000   72.5    52   53.9   72.0   9.60  .0746    0.000   211    5    100.0   10 
10/22/19 12:40a   59.9   60.2   59.9    84   55.1   8.0   SSW   1.33  12.0   SSW   58.4   60.0   58.5   56.4  30.352  0.00  0.00     0     0.00      0     0.0  0.00   0.0   0.035   0.000   72.5    52   53.9   72.0   9.60  .0746    0.000   212    5    100.0   10 
10/22/19 12:50a   60.3   60.3   59.8    84   55.4   7.0   SSW   1.17  14.0   SSE   59.6   60.4   59.7   57.5  30.348  0.00  0.00     0     0.00      0     0.0  0.00   0.0   0.033   0.000   72.5    52   53.9   72.0   9.60  .0746    0.000   212    5    100.0   10 
10/22/19  1:00a   61.3   61.3   60.3    84   56.4   8.0   SSW   1.33  14.0    SW   60.1   61.5   60.3   58.2  30.346  0.00  0.00     0     0.00      0     0.0  0.00   0.0   0.026   0.000   72.4    52   53.8   71.8   9.60  .0746    0.001   212    5    100.0   10 
10/22/19  1:10a   61.4   61.5   61.2    84   56.5   7.0   SSW   1.17  11.0     S   60.9   61.6   61.1   58.9  30.347  0.00  0.00     0     0.00      0     0.0  0.00   0.0   0.025   0.000   72.4    52   53.8   71.8   9.60  .0746    0.000   211    5    100.0   10 
10/22/19  1:20a   61.5   61.6   61.3    84   56.6   6.0   SSW   1.00  11.0   SSE   61.4   61.7   61.6   59.4  30.348  0.00  0.00     0     0.00      0     0.0  0.00   0.0   0.024   0.000   72.4    52   53.8   71.8   9.60  .0746    0.000   214    5    100.0   10 
10/22/19  1:30a   61.4   61.6   61.4    84   56.5   7.0   SSW   1.17  12.0   SSW   60.9   61.6   61.1   58.9  30.346  0.00  0.00     0     0.00      0     0.0  0.00   0.0   0.025   0.000   72.3    52   53.7   71.7   9.60  .0746    0.000   212    5    100.0   10 
10/22/19  1:40a   60.2   61.4   60.2    84   55.3   8.0   SSW   1.33  14.0     S   58.7   60.3   58.8   56.7  30.349  0.00  0.00     0     0.00      0     0.0  0.00   0.0   0.033   0.000   72.3    52   53.7   71.7   9.60  .0746    0.000   212    5    100.0   10 
10/22/19  1:50a   60.2   60.2   59.8    85   55.7   8.0   SSW   1.33  11.0    SW   58.7   60.3   58.8   56.7  30.350  0.00  0.00     0     0.00      0     0.0  0.00   0.0   0.033   0.000   72.3    52   53.7   71.7   9.60  .0746    0.000   214    5    100.0   10 
10/22/19  2:00a   60.9   60.9   60.2    85   56.4   9.0   SSW   1.50  16.0   SSW   58.8   61.1   59.0   57.0  30.346  0.00  0.00     0     0.00      0     0.0  0.00   0.0   0.028   0.000   72.3    52   53.7   71.7   9.60  .0746    0.001   212    5    100.0   10 
10/22/19  2:10a   61.4   61.4   60.9    85   56.8   9.0   SSW   1.50  15.0     S   59.3   61.6   59.5   57.5  30.343  0.00  0.00     0     0.00      0     0.0  0.00   0.0   0.025   0.000   72.3    52   53.7   71.7   9.60  .0746    0.000   214    5    100.0   10 
10/22/19  2:20a   61.5   61.6   61.4    85   56.9   9.0   SSW   1.50  15.0   SSW   59.5   61.8   59.8   57.8  30.344  0.00  0.00     0     0.00      0     0.0  0.00   0.0   0.024   0.000   72.3    52   53.7   71.7   9.60  .0746    0.000   211    5    100.0   10 
10/22/19  2:30a   61.2   61.6   61.2    84   56.3  10.0   SSW   1.67  18.0    SW   58.3   61.4   58.5   56.6  30.344  0.00  0.00     0     0.00      0     0.0  0.00   0.0   0.026   0.000   72.3    52   53.7   71.7   9.60  .0746    0.000   213    5    100.0   10 
10/22/19  2:40a   61.2   61.4   61.2    84   56.3  11.0   SSW   1.83  16.0   SSE   57.7   61.4   57.9   56.0  30.342  0.00  0.00     0     0.00      0     0.0  0.00   0.0   0.026   0.000   72.2    52   53.6   71.5   9.61  .0746    0.000   214    5    100.0   10 
10/22/19  2:50a   61.2   61.2   61.1    84   56.3  12.0   SSW   2.00  21.0   SSW   57.1   61.4   57.3   55.5  30.340  0.00  0.00     0     0.00      0     0.0  0.00   0.0   0.026   0.000   72.2    52   53.6   71.5   9.61  .0746    0.000   213    5    100.0   10 
10/22/19  3:00a   61.1   61.2   61.1    84   56.2  12.0   SSW   2.00  20.0    SE   57.0   61.3   57.2   55.4  30.342  0.00  0.00     0     0.00      0     0.0  0.00   0.0   0.027   0.000   72.2    52   53.6   71.5   9.61  .0746    0.001   213    5    100.0   10 
10/22/19  3:10a   61.1   61.2   61.1    84   56.2  12.0   SSW   2.00  22.0    SW   57.0   61.3   57.2   55.4  30.344  0.00  0.00     0     0.00      0     0.0  0.00   0.0   0.027   0.000   72.2    52   53.6   71.5   9.61  .0746    0.000   214    5    100.0   10 
10/22/19  3:20a   60.8   61.1   60.8    84   55.9  10.0   SSW   1.67  18.0   SSE   57.9   60.9   58.0   56.1  30.342  0.00  0.00     0     0.00      0     0.0  0.00   0.0   0.029   0.000   72.2    52   53.6   71.5   9.61  .0746    0.000   213    5    100.0   10 
10/22/19  3:30a   60.8   60.8   60.6    85   56.3  10.0   SSW   1.67  18.0    SW   57.9   61.0   58.1   56.2  30.338  0.00  0.00     0     0.00      0     0.0  0.00   0.0   0.029   0.000   72.1    52   53.5   71.4   9.61  .0746    0.000   211    5    100.0   10 
10/22/19  3:40a   60.9   61.0   60.8    85   56.4  10.0   SSW   1.67  16.0     S   58.0   61.1   58.2   56.3  30.336  0.00  0.00     0     0.00      0     0.0  0.00   0.0   0.028   0.000   72.1    52   53.5   71.4   9.61  .0746    0.000   212    5    100.0   10 
10/22/19  3:50a   60.2   60.8   60.2    85   55.7  11.0   SSW   1.83  15.0     S   56.5   60.3   56.6   54.7  30.334  0.00  0.00     0     0.00      0     0.0  0.00   0.0   0.033   0.000   72.1    52   53.5   71.4   9.61  .0746    0.000   213    5    100.0   10 
10/22/19  4:00a   60.0   60.1   59.9    86   55.8  10.0   SSW   1.67  15.0    SW   57.0   60.1   57.1   55.2  30.331  0.00  0.00     0     0.00      0     0.0  0.00   0.0   0.035   0.000   72.1    52   53.5   71.4   9.61  .0746    0.001   211    5    100.0   10 
10/22/19  4:10a   60.2   60.3   59.8    86   56.0  10.0   SSW   1.67  17.0    SW   57.2   60.4   57.4   55.5  30.329  0.00  0.00     0     0.00      0     0.0  0.00   0.0   0.033   0.000   72.1    52   53.5   71.4   9.61  .0746    0.000   213    5    100.0   10 
10/22/19  4:20a   59.2   60.2   59.2    86   55.0  11.0   SSW   1.83  17.0   SSW   55.4   59.3   55.5   53.6  30.333  0.01  0.00     0     0.00      0     0.0  0.00   0.0   0.040   0.000   72.0    52   53.4   71.3   9.61  .0746    0.000   212    5    100.0   10 
10/22/19  4:30a   59.2   59.3   59.1    87   55.3  11.0   SSW   1.83  17.0   SSW   55.4   59.3   55.5   53.6  30.330  0.00  0.00     0     0.00      0     0.0  0.00   0.0   0.040   0.000   72.0    52   53.4   71.3   9.61  .0746    0.000   211    5    100.0   10 
10/22/19  4:40a   59.4   59.4   59.0    87   55.5  11.0   SSW   1.83  20.0   SSE   55.6   59.5   55.7   53.8  30.326  0.00  0.00     0     0.00      0     0.0  0.00   0.0   0.039   0.000   72.0    52   53.4   71.3   9.61  .0746    0.000   214    5    100.0   10 
10/22/19  4:50a   59.2   59.4   59.2    87   55.3  12.0   SSW   2.00  22.0   SSW   54.8   59.3   54.9   53.1  30.326  0.00  0.00     0     0.00      0     0.0  0.00   0.0   0.040   0.000   72.0    52   53.4   71.3   9.61  .0746    0.000   211    5    100.0   10 
10/22/19  5:00a   58.9   59.2   58.9    87   55.0  10.0   SSW   1.67  16.0    SW   55.7   59.0   55.8   53.9  30.327  0.00  0.00     0     0.00      0     0.0  0.00   0.0   0.042   0.000   72.0    52   53.4   71.3   9.61  .0746    0.001   211    5    100.0   10 
10/22/19  5:10a   59.1   59.1   58.9    88   55.5  12.0   SSW   2.00  18.0   SSW   54.7   59.2   54.8   53.0  30.325  0.00  0.00     0     0.00      0     0.0  0.00   0.0   0.041   0.000   72.0    52   53.4   71.3   9.61  .0746    0.000   212    5    100.0   10 
10/22/19  5:20a   59.3   59.3   59.1    88   55.7  12.0   SSW   2.00  19.0   SSW   55.0   59.4   55.1   53.3  30.326  0.01  0.00     0     0.00      0     0.0  0.00   0.0   0.040   0.000   72.0    52   53.4   71.3   9.61  .0746    0.000   211    5    100.0   10 
10/22/19  5:30a   59.4   59.5   59.2    88   55.8  11.0   SSW   1.83  19.0   SSW   55.6   59.6   55.8   53.9  30.326  0.01  0.12     0     0.00      0     0.0  0.00   0.0   0.039   0.000   71.9    52   53.3   71.1   9.61  .0746    0.000   212    5    100.0   10 
10/22/19  5:40a   59.5   59.6   59.4    88   55.9  11.0   SSW   1.83  20.0   SSW   55.8   59.7   56.0   54.1  30.330  0.02  0.10     0     0.00      0     0.0  0.00   0.0   0.038   0.000   71.9    52   53.3   71.1   9.61  .0747    0.000   211    5    100.0   10 
10/22/19  5:50a   59.3   59.5   59.3    88   55.7  11.0   SSW   1.83  21.0   SSW   55.5   59.4   55.6   53.7  30.328  0.01  0.10     0     0.00      0     0.0  0.00   0.0   0.040   0.000   71.9    52   53.3   71.1   9.61  .0747    0.000   212    5    100.0   10 
10/22/19  6:00a   59.4   59.4   59.2    88   55.8  11.0   SSW   1.83  20.0   SSW   55.6   59.6   55.8   53.9  30.329  0.01  0.09     0     0.00      0     0.0  0.00   0.0   0.039   0.000   71.9    52   53.3   71.1   9.61  .0747    0.001   213    5    100.0   10 
10/22/19  6:10a   59.2   59.5   59.2    88   55.6  11.0   SSW   1.83  20.0    SW   55.4   59.3   55.5   53.6  30.334  0.00  0.04     0     0.00      0     0.0  0.00   0.0   0.040   0.000   71.8    52   53.2   71.0   9.61  .0747    0.000   211    5    100.0   10 
10/22/19  6:20a   59.2   59.3   59.2    88   55.6  11.0   SSW   1.83  20.0   SSW   55.4   59.3   55.5   53.6  30.332  0.01  0.04     0     0.00      0     0.0  0.00   0.0   0.040   0.000   71.8    53   53.7   71.0   9.78  .0747    0.000   210    5    100.0   10 
10/22/19  6:30a   59.1   59.4   59.1    88   55.5  11.0   SSW   1.83  17.0   SSW   55.3   59.2   55.4   53.5  30.337  0.01  0.07     0     0.00      0     0.0  0.00   0.0   0.041   0.000   71.8    53   53.7   71.0   9.78  .0747    0.000   208    5    100.0   10 
Email: AdamSPAM@StormwatchersRetreat.com (To send me email remove the word 'SPAM' from my email address.)